createdAt,value
2018-06-10T00:00:11.178Z,98328.75
2018-06-10T00:02:39.460Z,98324.94
2018-06-10T00:05:07.739Z,98329.17
2018-06-10T00:07:36.035Z,98317.77
2018-06-10T00:10:04.322Z,98311.61
2018-06-10T00:12:32.609Z,98315.69
2018-06-10T00:15:00.859Z,98313.08
2018-06-10T00:17:29.158Z,98304.11
2018-06-10T00:19:57.420Z,98300.27
2018-06-10T00:22:25.701Z,98299.19
2018-06-10T00:24:54.009Z,98295.36
2018-06-10T00:27:22.294Z,98292.67
2018-06-10T00:29:50.563Z,98299.25
2018-06-10T00:32:18.847Z,98292.58
2018-06-10T00:34:47.134Z,98280.47
2018-06-10T00:37:15.434Z,98277.02
2018-06-10T00:39:43.785Z,98277.45
2018-06-10T00:42:12.075Z,98279.42
2018-06-10T00:44:40.331Z,98273.73
2018-06-10T00:47:08.639Z,98269.78
2018-06-10T00:49:36.882Z,98270.17
2018-06-10T00:52:05.191Z,98272.69
2018-06-10T00:54:33.470Z,98269.24
2018-06-10T00:57:01.726Z,98267.47
2018-06-10T00:59:30.030Z,98267.26
2018-06-10T01:01:58.315Z,98264.37
2018-06-10T01:04:26.621Z,98271.84
2018-06-10T01:06:54.870Z,98269.75
2018-06-10T01:09:23.173Z,98264.66
2018-06-10T01:11:51.501Z,98260.08
2018-06-10T01:14:19.798Z,98269.03
2018-06-10T01:16:48.056Z,98261.73
2018-06-10T01:19:16.471Z,98267.69
2018-06-10T01:21:44.727Z,98269.88
2018-06-10T01:24:13.055Z,98259.66
2018-06-10T01:26:46.583Z,98265.38
2018-06-10T01:29:14.866Z,98264.56
2018-06-10T01:31:43.122Z,98268.48
2018-06-10T01:34:11.411Z,98262.97
2018-06-10T01:36:39.676Z,98265.91
2018-06-10T01:39:07.958Z,98262.48
2018-06-10T01:41:36.206Z,98257.91
2018-06-10T01:44:04.503Z,98252.69
2018-06-10T01:46:32.753Z,98261.22
2018-06-10T01:49:01.051Z,98258.30
2018-06-10T01:51:29.294Z,98261.33
2018-06-10T01:53:57.593Z,98261.11
2018-06-10T01:56:25.855Z,98251.12
2018-06-10T01:58:54.228Z,98250.97
2018-06-10T02:01:22.517Z,98245.59
2018-06-10T02:03:50.826Z,98239.59
2018-06-10T02:06:19.102Z,98248.70
2018-06-10T02:08:47.453Z,98241.85
2018-06-10T02:11:15.698Z,98247.17
2018-06-10T02:13:43.987Z,98245.91
2018-06-10T02:16:12.366Z,98245.39
2018-06-10T02:18:40.670Z,98247.03
2018-06-10T02:21:08.917Z,98249.78
2018-06-10T02:23:37.255Z,98253.11
2018-06-10T02:26:05.563Z,98248.74
2018-06-10T02:28:33.859Z,98249.13
2018-06-10T02:31:02.110Z,98246.29
2018-06-10T02:33:30.366Z,98249.20
2018-06-10T02:35:58.654Z,98248.31
2018-06-10T02:38:26.960Z,98245.63
2018-06-10T02:40:55.283Z,98242.36
2018-06-10T02:43:23.566Z,98243.59
2018-06-10T02:45:51.978Z,98242.05
2018-06-10T02:48:20.239Z,98233.58
2018-06-10T02:50:48.608Z,98241.31
2018-06-10T02:53:16.909Z,98241.19
2018-06-10T02:55:45.242Z,98236.29
2018-06-10T02:58:13.497Z,98238.34
2018-06-10T03:00:41.818Z,98240.83
2018-06-10T03:03:10.110Z,98244.59
2018-06-10T03:05:38.398Z,98243.58
2018-06-10T03:08:06.684Z,98247.42
2018-06-10T03:10:34.974Z,98241.63
2018-06-10T03:13:03.543Z,98249.54
2018-06-10T03:15:31.866Z,98240.70
2018-06-10T03:18:00.131Z,98243.28
2018-06-10T03:20:28.491Z,98248.61
2018-06-10T03:22:56.750Z,98246.55
2018-06-10T03:25:25.090Z,98251.88
2018-06-10T03:27:53.362Z,98249.38
2018-06-10T03:30:21.669Z,98247.08
2018-06-10T03:32:49.938Z,98246.31
2018-06-10T03:35:18.263Z,98253.92
2018-06-10T03:37:46.535Z,98251.30
2018-06-10T03:40:14.849Z,98254.27
2018-06-10T03:42:43.106Z,98258.44
2018-06-10T03:45:11.402Z,98257.03
2018-06-10T03:47:39.653Z,98256.42
2018-06-10T03:50:07.952Z,98260.64
2018-06-10T03:52:36.651Z,98263.95
2018-06-10T03:55:05.039Z,98258.78
2018-06-10T03:57:33.640Z,98258.22
2018-06-10T04:00:01.975Z,98263.20
2018-06-10T04:02:30.274Z,98263.81
2018-06-10T04:04:58.577Z,98262.52
2018-06-10T04:07:26.859Z,98262.21
2018-06-10T04:09:55.190Z,98265.67
2018-06-10T04:12:23.441Z,98260.38
2018-06-10T04:14:51.706Z,98261.91
2018-06-10T04:17:20.130Z,98260.42
2018-06-10T04:19:48.382Z,98265.63
2018-06-10T04:22:16.670Z,98270.41
2018-06-10T04:24:44.937Z,98269.03
2018-06-10T04:27:13.286Z,98269.79
2018-06-10T04:29:41.577Z,98264.84
2018-06-10T04:32:09.867Z,98273.16
2018-06-10T04:34:38.109Z,98281.89
2018-06-10T04:37:06.400Z,98278.54
2018-06-10T04:42:02.005Z,98275.12
2018-06-10T04:44:30.258Z,98273.24
2018-06-10T04:46:58.602Z,98275.30
2018-06-10T04:49:26.863Z,98273.80
2018-06-10T04:51:55.175Z,98277.00
2018-06-10T04:54:23.442Z,98284.83
2018-06-10T04:56:51.727Z,98276.17
2018-06-10T04:59:19.973Z,98278.17
2018-06-10T05:01:48.262Z,98280.54
2018-06-10T05:04:16.505Z,98290.25
2018-06-10T05:06:44.802Z,98293.17
2018-06-10T05:09:13.056Z,98292.17
2018-06-10T05:11:41.346Z,98297.29
2018-06-10T05:14:09.611Z,98299.26
2018-06-10T05:16:37.925Z,98300.52
2018-06-10T05:19:06.176Z,98297.19
2018-06-10T05:21:34.492Z,98291.72
2018-06-10T05:24:02.837Z,98284.63
2018-06-10T05:26:31.235Z,98297.36
2018-06-10T05:29:02.541Z,98290.27
2018-06-10T05:31:31.286Z,98289.96
2018-06-10T05:33:59.546Z,98292.76
2018-06-10T05:36:27.894Z,98290.84
2018-06-10T05:38:56.254Z,98292.23
2018-06-10T05:41:24.551Z,98289.22
2018-06-10T05:43:52.800Z,98290.88
2018-06-10T05:46:21.110Z,98290.62
2018-06-10T05:48:49.425Z,98296.52
2018-06-10T05:51:17.777Z,98298.17
2018-06-10T05:53:46.055Z,98299.63
2018-06-10T05:56:14.314Z,98304.06
2018-06-10T05:58:42.860Z,98307.98
2018-06-10T06:01:11.126Z,98313.81
2018-06-10T06:03:39.422Z,98312.25
2018-06-10T06:06:07.694Z,98322.91
2018-06-10T06:08:36.018Z,98318.63
2018-06-10T06:11:04.289Z,98318.24
2018-06-10T06:13:32.590Z,98315.01
2018-06-10T06:16:00.881Z,98316.59
2018-06-10T06:18:29.230Z,98319.13
2018-06-10T06:20:57.552Z,98312.97
2018-06-10T06:23:25.859Z,98318.55
2018-06-10T06:25:54.186Z,98317.33
2018-06-10T06:28:22.493Z,98323.68
2018-06-10T06:30:50.755Z,98321.55
2018-06-10T06:33:19.474Z,98323.65
2018-06-10T06:35:47.710Z,98328.22
2018-06-10T06:38:16.007Z,98327.57
2018-06-10T06:40:44.258Z,98324.67
2018-06-10T06:43:12.585Z,98332.81
2018-06-10T06:45:40.927Z,98331.37
2018-06-10T06:48:09.485Z,98332.47
2018-06-10T06:50:37.980Z,98328.84
2018-06-10T06:53:06.355Z,98331.86
2018-06-10T06:55:34.730Z,98337.45
2018-06-10T06:58:03.329Z,98338.95
2018-06-10T07:00:31.721Z,98341.00
2018-06-10T07:03:00.138Z,98345.20
2018-06-10T07:05:28.434Z,98345.27
2018-06-10T07:07:56.858Z,98346.25
2018-06-10T07:10:25.195Z,98354.61
2018-06-10T07:12:53.529Z,98362.87
2018-06-10T07:15:21.778Z,98360.57
2018-06-10T07:17:50.068Z,98360.33
2018-06-10T07:20:18.858Z,98365.88
2018-06-10T07:22:47.301Z,98357.23
2018-06-10T07:25:15.560Z,98351.45
2018-06-10T07:27:44.011Z,98353.08
2018-06-10T07:30:12.394Z,98353.91
2018-06-10T07:32:40.700Z,98357.18
2018-06-10T07:35:09.021Z,98358.07
2018-06-10T07:37:37.266Z,98370.09
2018-06-10T07:40:05.575Z,98359.70
2018-06-10T07:42:33.898Z,98366.17
2018-06-10T07:45:02.224Z,98365.31
2018-06-10T07:47:30.643Z,98362.52
2018-06-10T07:49:58.997Z,98364.84
2018-06-10T07:52:27.312Z,98367.08
2018-06-10T07:54:55.609Z,98371.94
2018-06-10T07:57:23.857Z,98375.52
2018-06-10T07:59:52.325Z,98366.52
2018-06-10T08:02:20.581Z,98371.27
2018-06-10T08:04:48.955Z,98370.74
2018-06-10T08:07:17.534Z,98375.95
2018-06-10T08:09:45.852Z,98375.73
2018-06-10T08:12:14.136Z,98375.02
2018-06-10T08:14:42.446Z,98379.33
2018-06-10T08:17:10.711Z,98380.20
2018-06-10T08:19:39.103Z,98377.86
2018-06-10T08:22:07.428Z,98377.67
2018-06-10T08:24:35.719Z,98378.14
2018-06-10T08:27:04.022Z,98388.34
2018-06-10T08:29:32.328Z,98387.13
2018-06-10T08:32:00.694Z,98390.56
2018-06-10T08:34:29.061Z,98386.83
2018-06-10T08:36:57.334Z,98390.98
2018-06-10T08:39:25.634Z,98393.92
2018-06-10T08:41:53.895Z,98393.15
2018-06-10T08:44:22.218Z,98389.66
2018-06-10T08:46:50.534Z,98388.86
2018-06-10T08:49:18.836Z,98391.58
2018-06-10T08:51:48.186Z,98395.25
2018-06-10T08:54:16.530Z,98402.23
2018-06-10T08:56:44.794Z,98393.12
2018-06-10T08:59:13.146Z,98406.19
2018-06-10T09:01:41.483Z,98393.53
2018-06-10T09:04:09.779Z,98398.20
2018-06-10T09:06:38.049Z,98392.37
2018-06-10T09:09:08.952Z,98388.37
2018-06-10T09:11:37.777Z,98389.84
2018-06-10T09:14:06.074Z,98386.53
2018-06-10T09:16:34.482Z,98387.99
2018-06-10T09:19:02.802Z,98387.29
2018-06-10T09:21:31.422Z,98385.92
2018-06-10T09:24:00.055Z,98384.52
2018-06-10T09:26:28.342Z,98389.17
2018-06-10T09:28:56.615Z,98393.41
2018-06-10T09:31:24.915Z,98399.34
2018-06-10T09:33:54.658Z,98396.55
2018-06-10T09:36:23.494Z,98397.30
2018-06-10T09:38:52.050Z,98396.84
2018-06-10T09:41:20.346Z,98404.99
2018-06-10T09:43:48.725Z,98404.30
2018-06-10T09:46:17.158Z,98403.94
2018-06-10T09:48:45.530Z,98401.55
2018-06-10T09:51:13.958Z,98394.77
2018-06-10T09:53:42.210Z,98389.78
2018-06-10T09:56:10.506Z,98383.13
2018-06-10T09:58:38.902Z,98369.00
2018-06-10T10:01:07.204Z,98373.53
2018-06-10T10:03:35.552Z,98379.78
2018-06-10T10:06:04.168Z,98379.69
2018-06-10T10:08:32.498Z,98386.14
2018-06-10T10:11:00.813Z,98379.16
2018-06-10T10:13:29.074Z,98373.33
2018-06-10T10:15:57.430Z,98364.05
2018-06-10T10:18:25.712Z,98364.72
2018-06-10T10:20:54.032Z,98365.16
2018-06-10T10:23:22.295Z,98361.05
2018-06-10T10:25:50.579Z,98365.06
2018-06-10T10:28:18.883Z,98365.28
2018-06-10T10:30:47.155Z,98364.14
2018-06-10T10:33:15.446Z,98362.44
2018-06-10T10:35:43.901Z,98362.59
2018-06-10T10:38:12.270Z,98352.50
2018-06-10T10:40:40.632Z,98350.91
2018-06-10T10:43:08.973Z,98347.98
2018-06-10T10:45:37.288Z,98339.73
2018-06-10T10:48:05.618Z,98342.62
2018-06-10T10:50:34.130Z,98333.20
2018-06-10T10:53:02.427Z,98335.44
2018-06-10T10:55:30.746Z,98338.56
2018-06-10T10:57:59.062Z,98341.40
2018-06-10T11:00:27.427Z,98344.82
2018-06-10T11:02:55.781Z,98340.15
2018-06-10T11:05:24.080Z,98344.28
2018-06-10T11:07:53.127Z,98339.39
2018-06-10T11:10:21.432Z,98333.61
2018-06-10T11:12:49.842Z,98337.55
2018-06-10T11:15:18.263Z,98349.55
2018-06-10T11:17:46.623Z,98345.03
2018-06-10T11:20:15.050Z,98360.09
2018-06-10T11:22:43.339Z,98350.57
2018-06-10T11:25:11.779Z,98356.06
2018-06-10T11:27:40.777Z,98355.89
2018-06-10T11:30:09.330Z,98347.18
2018-06-10T11:32:37.612Z,98342.91
2018-06-10T11:35:05.922Z,98356.33
2018-06-10T11:37:34.258Z,98372.02
2018-06-10T11:40:02.664Z,98367.41
2018-06-10T11:42:31.284Z,98368.35
2018-06-10T11:45:00.327Z,98362.70
2018-06-10T11:47:28.657Z,98364.72
2018-06-10T11:49:56.917Z,98372.25
2018-06-10T11:52:25.230Z,98367.14
2018-06-10T11:54:53.751Z,98357.31
2018-06-10T11:57:22.654Z,98354.14
2018-06-10T11:59:50.938Z,98351.31
2018-06-10T12:02:19.259Z,98359.08
2018-06-10T12:04:47.586Z,98366.47
2018-06-10T12:07:15.926Z,98361.52
2018-06-10T12:09:44.258Z,98356.23
2018-06-10T12:12:12.624Z,98347.75
2018-06-10T12:14:40.962Z,98350.49
2018-06-10T12:17:09.336Z,98348.29
2018-06-10T12:19:37.635Z,98337.23
2018-06-10T12:22:05.934Z,98338.86
2018-06-10T12:24:34.306Z,98345.81
2018-06-10T12:27:02.679Z,98343.84
2018-06-10T12:29:30.981Z,98343.61
2018-06-10T12:31:59.720Z,98333.31
2018-06-10T12:34:28.361Z,98338.45
2018-06-10T12:37:00.877Z,98335.80
2018-06-10T12:39:38.465Z,98334.55
2018-06-10T12:43:27.568Z,98327.13
2018-06-10T12:48:53.515Z,98316.66
2018-06-10T12:51:31.357Z,98319.66
2018-06-10T12:54:01.214Z,98315.15
2018-06-10T12:56:39.013Z,98317.44
2018-06-10T12:59:09.837Z,98318.91
2018-06-10T13:01:38.392Z,98323.92
2018-06-10T13:04:07.076Z,98323.16
2018-06-10T13:06:35.818Z,98316.16
2018-06-10T13:09:06.795Z,98313.86
2018-06-10T13:11:35.542Z,98311.98
2018-06-10T13:14:06.481Z,98320.87
2018-06-10T13:16:37.163Z,98317.98
2018-06-10T13:19:06.918Z,98311.19
2018-06-10T13:21:42.570Z,98310.11
2018-06-10T13:24:12.366Z,98310.89
2018-06-10T13:26:44.640Z,98311.19
2018-06-10T13:29:18.338Z,98312.69
2018-06-10T13:31:47.130Z,98306.70
2018-06-10T13:34:18.897Z,98304.50
2018-06-10T13:36:58.204Z,98300.61
2018-06-10T13:39:31.260Z,98301.14
2018-06-10T13:42:12.749Z,98298.20
2018-06-10T13:44:45.730Z,98295.75
2018-06-10T13:50:05.800Z,98286.73
2018-06-10T13:52:35.922Z,98287.16
2018-06-10T13:55:16.858Z,98285.27
2018-06-10T13:57:45.341Z,98278.69
2018-06-10T14:00:24.453Z,98281.16
2018-06-10T14:02:53.776Z,98279.36
2018-06-10T14:05:23.432Z,98286.48
2018-06-10T14:08:14.297Z,98284.02
2018-06-10T14:10:45.505Z,98285.92
2018-06-10T14:13:14.428Z,98282.28
2018-06-10T14:16:22.472Z,98277.20
2018-06-10T14:18:52.382Z,98280.66
2018-06-10T14:21:21.875Z,98283.95
2018-06-10T14:23:59.852Z,98282.83
2018-06-10T14:26:48.626Z,98275.72
2018-06-10T14:29:17.744Z,98283.61
2018-06-10T14:31:53.338Z,98281.70
2018-06-10T14:34:23.872Z,98282.30
2018-06-10T14:36:53.363Z,98288.41
2018-06-10T14:39:30.970Z,98296.14
2018-06-10T14:42:02.232Z,98295.75
2018-06-10T14:44:36.312Z,98301.62
2018-06-10T14:47:10.268Z,98291.36
2018-06-10T14:49:43.339Z,98280.34
2018-06-10T14:52:15.196Z,98280.56
2018-06-10T14:54:47.885Z,98281.09
2018-06-10T14:57:27.150Z,98278.87
2018-06-10T14:59:59.246Z,98272.36
2018-06-10T15:02:28.306Z,98274.77
2018-06-10T15:04:59.113Z,98275.44
2018-06-10T15:07:28.160Z,98278.81
2018-06-10T15:10:06.011Z,98279.34
2018-06-10T15:12:35.566Z,98283.55
2018-06-10T15:15:06.216Z,98279.05
2018-06-10T15:17:37.483Z,98285.17
2018-06-10T15:20:19.140Z,98282.48
2018-06-10T15:22:54.822Z,98284.20
2018-06-10T15:25:26.688Z,98287.98
2018-06-10T15:27:55.347Z,98285.38
2018-06-10T15:30:23.931Z,98286.33
2018-06-10T15:32:53.787Z,98293.03
2018-06-10T15:38:30.202Z,98292.32
2018-06-10T15:41:10.365Z,98293.50
2018-06-10T15:46:36.517Z,98280.88
2018-06-10T15:49:05.362Z,98274.66
2018-06-10T15:51:35.654Z,98269.87
2018-06-10T15:54:05.682Z,98265.98
2018-06-10T15:56:38.678Z,98269.04
2018-06-10T15:59:14.120Z,98269.33
2018-06-10T16:02:03.759Z,98273.23
2018-06-10T16:04:36.655Z,98274.25
2018-06-10T16:07:10.924Z,98263.38
2018-06-10T16:09:40.792Z,98260.88
2018-06-10T16:12:09.966Z,98261.84
2018-06-10T16:14:43.388Z,98248.80
2018-06-10T16:17:12.456Z,98251.12
2018-06-10T16:19:47.520Z,98249.44
2018-06-10T16:22:17.299Z,98250.14
2018-06-10T16:24:45.826Z,98251.31
2018-06-10T16:27:14.863Z,98251.12
2018-06-10T16:29:44.107Z,98250.27
2018-06-10T16:32:14.563Z,98251.22
2018-06-10T16:34:43.859Z,98257.96
2018-06-10T16:37:13.022Z,98257.03
2018-06-10T16:39:47.060Z,98261.13
2018-06-10T16:42:17.351Z,98252.17
2018-06-10T16:44:47.066Z,98267.16
2018-06-10T16:47:17.161Z,98257.25
2018-06-10T16:49:47.418Z,98253.76
2018-06-10T16:52:16.099Z,98248.95
2018-06-10T16:54:46.948Z,98257.30
2018-06-10T16:57:16.106Z,98258.84
2018-06-10T16:59:48.637Z,98261.17
2018-06-10T17:02:17.365Z,98256.89
2018-06-10T17:04:47.150Z,98261.05
2018-06-10T17:07:24.065Z,98257.01
2018-06-10T17:12:29.578Z,98258.38
2018-06-10T17:14:59.715Z,98258.75
2018-06-10T17:17:31.826Z,98255.66
2018-06-10T17:20:01.262Z,98261.57
2018-06-10T17:22:35.260Z,98257.02
2018-06-10T17:25:07.503Z,98268.97
2018-06-10T17:27:42.374Z,98266.74
2018-06-10T17:30:32.930Z,98274.12
2018-06-10T17:33:05.315Z,98279.94
2018-06-10T17:35:47.661Z,98285.31
2018-06-10T17:38:16.860Z,98289.58
2018-06-10T17:40:46.104Z,98290.39
2018-06-10T17:43:17.797Z,98291.25
2018-06-10T17:45:57.909Z,98289.24
2018-06-10T17:48:50.544Z,98294.17
2018-06-10T17:51:22.323Z,98298.64
2018-06-10T17:54:21.804Z,98303.98
2018-06-10T17:56:54.567Z,98303.38
2018-06-10T18:02:11.590Z,98309.18
2018-06-10T18:04:47.789Z,98304.03
2018-06-10T18:07:24.060Z,98306.98
2018-06-10T18:10:04.372Z,98304.67
2018-06-10T18:12:42.849Z,98315.09
2018-06-10T18:15:21.784Z,98318.08
2018-06-10T18:17:52.685Z,98320.86
2018-06-10T18:20:22.654Z,98310.20
2018-06-10T18:22:52.411Z,98317.14
2018-06-10T18:25:21.316Z,98311.61
2018-06-10T18:27:55.154Z,98323.39
2018-06-10T18:30:28.629Z,98320.54
2018-06-10T18:32:57.389Z,98319.41
2018-06-10T18:35:27.558Z,98322.49
2018-06-10T18:37:56.641Z,98323.16
2018-06-10T18:40:35.265Z,98317.64
2018-06-10T18:43:04.905Z,98323.01
2018-06-10T18:45:36.754Z,98329.12
2018-06-10T18:48:08.792Z,98330.17
2018-06-10T18:50:39.533Z,98328.06
2018-06-10T18:53:20.372Z,98332.52
2018-06-10T18:55:58.735Z,98326.75
2018-06-10T18:58:32.463Z,98319.05
2018-06-10T19:01:07.347Z,98325.68
2018-06-10T19:03:40.107Z,98329.34
2018-06-10T19:06:15.277Z,98323.91
2018-06-10T19:08:46.407Z,98321.16
2018-06-10T19:11:18.153Z,98325.98
2018-06-10T19:13:58.129Z,98321.63
2018-06-10T19:19:21.676Z,98327.23
2018-06-10T19:22:03.669Z,98328.50
2018-06-10T19:24:39.400Z,98335.87
2018-06-10T19:27:11.191Z,98344.18
2018-06-10T19:30:29.563Z,98348.39
2018-06-10T19:33:55.783Z,98360.46
2018-06-10T19:36:27.763Z,98368.20
2018-06-10T19:39:14.246Z,98380.73
2018-06-10T19:42:00.144Z,98376.80
2018-06-10T19:44:41.212Z,98388.34
2018-06-10T19:47:13.625Z,98389.94
2018-06-10T19:52:33.769Z,98402.30
2018-06-10T19:55:06.968Z,98413.11
2018-06-10T19:57:36.990Z,98425.39
2018-06-10T20:00:06.101Z,98433.97
2018-06-10T20:02:37.712Z,98436.61
2018-06-10T20:05:09.977Z,98432.09
2018-06-10T20:07:38.716Z,98433.48
2018-06-10T20:10:07.994Z,98432.03
2018-06-10T20:12:37.027Z,98428.31
2018-06-10T20:15:16.093Z,98427.78
2018-06-10T20:18:16.286Z,98433.17
2018-06-10T20:20:46.248Z,98432.86
2018-06-10T20:23:14.884Z,98424.28
2018-06-10T20:25:45.064Z,98432.30
2018-06-10T20:28:20.281Z,98438.39
2018-06-10T20:30:49.673Z,98439.02
2018-06-10T20:33:32.899Z,98441.41
2018-06-10T20:36:02.720Z,98439.07
2018-06-10T20:38:36.849Z,98434.77
2018-06-10T20:41:06.742Z,98439.85
2018-06-10T20:43:40.679Z,98433.59
2018-06-10T20:46:09.907Z,98445.16
2018-06-10T20:48:40.265Z,98453.64
2018-06-10T20:51:21.487Z,98442.81
2018-06-10T20:56:40.217Z,98435.98
2018-06-10T20:59:08.915Z,98435.58
2018-06-10T21:01:47.059Z,98445.00
2018-06-10T21:04:26.822Z,98444.16
2018-06-10T21:06:57.433Z,98445.16
2018-06-10T21:09:39.191Z,98447.19
2018-06-10T21:12:32.258Z,98439.44
2018-06-10T21:18:35.109Z,98431.27
2018-06-10T21:24:04.533Z,98433.93
2018-06-10T21:26:35.622Z,98428.83
2018-06-10T21:29:08.346Z,98428.63
2018-06-10T21:31:38.870Z,98441.66
2018-06-10T21:34:08.747Z,98438.77
2018-06-10T21:36:39.487Z,98437.91
2018-06-10T21:39:10.958Z,98443.31
2018-06-10T21:41:41.107Z,98451.23
2018-06-10T21:44:11.315Z,98445.66
2018-06-10T21:46:40.225Z,98440.13
2018-06-10T21:49:09.407Z,98448.19
2018-06-10T21:51:41.830Z,98451.47
2018-06-10T21:54:13.325Z,98459.30
2018-06-10T21:56:45.067Z,98455.89
2018-06-10T21:59:14.642Z,98452.79
2018-06-10T22:01:44.492Z,98452.79
2018-06-10T22:04:13.231Z,98455.63
2018-06-10T22:06:42.739Z,98465.89
2018-06-10T22:09:12.149Z,98464.53
2018-06-10T22:11:41.557Z,98467.94
2018-06-10T22:14:11.066Z,98461.19
2018-06-10T22:16:39.967Z,98462.48
2018-06-10T22:19:09.196Z,98459.46
2018-06-10T22:24:20.766Z,98464.82
2018-06-10T22:26:49.282Z,98462.63
2018-06-10T22:29:18.846Z,98462.95
2018-06-10T22:31:56.902Z,98462.31
2018-06-10T22:34:26.376Z,98458.46
2018-06-10T22:36:56.585Z,98451.42
2018-06-10T22:39:26.322Z,98451.94
2018-06-10T22:42:19.900Z,98457.21
2018-06-10T22:44:48.532Z,98454.61
2018-06-10T22:47:17.710Z,98460.96
2018-06-10T22:49:46.469Z,98457.46
2018-06-10T22:52:14.865Z,98456.92
2018-06-10T22:54:46.867Z,98455.48
2018-06-10T22:57:27.844Z,98453.83
2018-06-10T22:59:58.357Z,98451.52
2018-06-10T23:02:29.135Z,98453.89
2018-06-10T23:04:57.945Z,98453.13
2018-06-10T23:07:26.366Z,98463.43
2018-06-10T23:09:54.735Z,98458.84
2018-06-10T23:12:23.292Z,98467.33
2018-06-10T23:14:52.623Z,98462.30
2018-06-10T23:17:21.133Z,98453.31
2018-06-10T23:19:49.514Z,98454.39
2018-06-10T23:22:17.985Z,98454.94
2018-06-10T23:24:50.033Z,98454.30
2018-06-10T23:27:25.187Z,98449.34
2018-06-10T23:29:53.571Z,98441.57
2018-06-10T23:32:21.987Z,98443.08
2018-06-10T23:34:50.663Z,98446.77
2018-06-10T23:37:19.180Z,98442.46
2018-06-10T23:39:48.079Z,98448.61
2018-06-10T23:42:16.461Z,98443.60
2018-06-10T23:44:44.975Z,98443.02
2018-06-10T23:47:13.523Z,98447.49
2018-06-10T23:49:42.849Z,98447.17
2018-06-10T23:52:11.819Z,98439.97
2018-06-10T23:54:40.257Z,98433.17
2018-06-10T23:57:08.677Z,98428.73
2018-06-10T23:59:38.138Z,98430.28
